createdAt,value
2022-08-22T00:00:19.570Z,6.60
2022-08-22T00:02:34.416Z,5.93
2022-08-22T00:02:56.261Z,4.45
2022-08-22T00:03:00.777Z,5.10
2022-08-22T00:03:03.863Z,2.47
2022-08-22T00:04:47.553Z,6.97
2022-08-22T00:07:03.073Z,6.82
2022-08-22T00:09:25.715Z,6.13
2022-08-22T00:11:45.861Z,6.28
2022-08-22T00:14:01.558Z,6.40
2022-08-22T00:16:13.940Z,6.32
2022-08-22T00:20:37.263Z,5.78
2022-08-22T00:22:50.904Z,5.70
2022-08-22T00:25:24.588Z,6.43
2022-08-22T00:27:45.146Z,6.30
2022-08-22T00:29:58.315Z,5.78
2022-08-22T00:32:14.710Z,6.68
2022-08-22T00:34:36.024Z,6.50
2022-08-22T00:36:52.169Z,6.15
2022-08-22T00:39:09.590Z,5.68
2022-08-22T00:41:32.500Z,6.15
2022-08-22T00:44:06.908Z,6.10
2022-08-22T00:46:29.607Z,5.82
2022-08-22T00:49:21.378Z,6.00
2022-08-22T00:52:06.399Z,6.20
2022-08-22T00:54:22.438Z,5.95
2022-08-22T00:56:47.900Z,6.65
2022-08-22T00:59:23.392Z,6.80
2022-08-22T01:01:37.224Z,7.22
2022-08-22T01:04:12.830Z,6.93
2022-08-22T01:06:29.947Z,6.93
2022-08-22T01:09:12.003Z,6.90
2022-08-22T01:11:36.177Z,7.45
2022-08-22T01:13:57.640Z,7.05
2022-08-22T01:16:20.132Z,7.15
2022-08-22T01:18:46.729Z,7.95
2022-08-22T01:21:26.111Z,7.53
2022-08-22T01:23:58.475Z,7.47
2022-08-22T01:26:47.386Z,7.82
2022-08-22T01:29:28.678Z,7.72
2022-08-22T01:32:16.243Z,7.75
2022-08-22T01:34:54.870Z,7.97
2022-08-22T01:37:39.607Z,7.65
2022-08-22T01:40:14.113Z,7.28
2022-08-22T01:42:52.921Z,8.25
2022-08-22T01:45:22.375Z,7.95
2022-08-22T01:47:37.524Z,8.05
2022-08-22T01:49:52.201Z,7.72
2022-08-22T01:52:07.787Z,7.43
2022-08-22T01:54:26.788Z,7.68
2022-08-22T01:56:38.844Z,7.45
2022-08-22T01:58:57.072Z,7.97
2022-08-22T02:01:22.264Z,7.30
2022-08-22T02:03:34.783Z,7.93
2022-08-22T02:05:54.518Z,7.38
2022-08-22T02:08:08.502Z,7.53
2022-08-22T02:10:22.597Z,7.18
2022-08-22T02:12:38.735Z,7.28
2022-08-22T02:14:56.004Z,7.93
2022-08-22T02:17:17.010Z,6.78
2022-08-22T02:19:42.521Z,7.03
2022-08-22T02:21:58.661Z,6.60
2022-08-22T02:24:17.518Z,6.60
2022-08-22T02:26:29.054Z,6.70
2022-08-22T02:31:10.294Z,6.25
2022-08-22T02:33:32.122Z,6.20
2022-08-22T02:35:57.324Z,7.20
2022-08-22T02:38:19.252Z,6.10
2022-08-22T02:40:35.447Z,5.93
2022-08-22T02:42:48.053Z,6.10
2022-08-22T02:45:03.488Z,6.05
2022-08-22T02:47:15.279Z,5.50
2022-08-22T02:51:49.296Z,6.50
2022-08-22T02:54:10.399Z,6.70
2022-08-22T02:56:22.087Z,6.67
2022-08-22T03:00:50.563Z,6.30
2022-08-22T03:03:08.317Z,6.88
2022-08-22T03:05:26.502Z,7.28
2022-08-22T03:07:44.237Z,7.68
2022-08-22T03:09:59.911Z,8.02
2022-08-22T03:12:15.450Z,7.22
2022-08-22T03:14:27.842Z,7.55
2022-08-22T03:16:40.361Z,8.10
2022-08-22T03:18:51.991Z,7.60
2022-08-22T03:21:15.127Z,8.20
2022-08-22T03:23:31.331Z,8.13
2022-08-22T03:25:45.234Z,7.90
2022-08-22T03:27:59.900Z,8.27
2022-08-22T03:30:13.317Z,7.82
2022-08-22T03:32:23.055Z,7.85
2022-08-22T03:34:30.692Z,8.55
2022-08-22T03:36:39.664Z,8.68
2022-08-22T03:39:17.260Z,8.65
2022-08-22T03:41:54.558Z,8.38
2022-08-22T03:44:36.352Z,8.65
2022-08-22T03:47:14.192Z,8.48
2022-08-22T03:50:13.956Z,8.23
2022-08-22T03:52:36.089Z,7.90
2022-08-22T03:55:03.390Z,8.95
2022-08-22T03:57:45.396Z,8.45
2022-08-22T04:00:34.814Z,8.82
2022-08-22T04:03:07.285Z,8.25
2022-08-22T04:05:55.425Z,8.05
2022-08-22T04:08:28.770Z,8.00
2022-08-22T04:10:57.663Z,8.73
2022-08-22T04:13:29.073Z,8.20
2022-08-22T04:16:04.157Z,7.97
2022-08-22T04:18:42.722Z,7.20
2022-08-22T04:21:10.016Z,7.50
2022-08-22T04:23:52.282Z,7.90
2022-08-22T04:26:12.282Z,8.45
2022-08-22T04:28:25.590Z,7.85
2022-08-22T04:30:38.497Z,8.02
2022-08-22T04:32:47.928Z,8.15
2022-08-22T04:34:58.693Z,7.82
2022-08-22T04:37:13.152Z,7.82
2022-08-22T04:39:25.254Z,6.65
2022-08-22T04:41:49.784Z,7.72
2022-08-22T04:44:01.418Z,7.60
2022-08-22T04:46:15.983Z,8.00
2022-08-22T04:48:29.918Z,7.22
2022-08-22T04:50:43.430Z,7.55
2022-08-22T04:53:04.394Z,7.32
2022-08-22T04:55:21.102Z,7.35
2022-08-22T04:57:37.548Z,6.95
2022-08-22T04:59:45.396Z,9.75
2022-08-22T05:01:59.917Z,8.73
2022-08-22T05:04:11.341Z,13.40
2022-08-22T05:06:22.310Z,12.60
2022-08-22T05:08:36.017Z,7.73
2022-08-22T05:10:48.404Z,7.35
2022-08-22T05:12:58.802Z,8.15
2022-08-22T05:15:10.691Z,8.13
2022-08-22T05:17:20.892Z,7.85
2022-08-22T05:19:33.294Z,9.77
2022-08-22T05:21:44.431Z,9.57
2022-08-22T05:23:56.932Z,9.38
2022-08-22T05:26:07.282Z,9.00
2022-08-22T05:28:18.459Z,8.52
2022-08-22T05:30:28.403Z,8.80
2022-08-22T05:32:43.727Z,9.40
2022-08-22T05:34:53.724Z,9.15
2022-08-22T05:37:08.592Z,8.25
2022-08-22T05:39:20.888Z,8.13
2022-08-22T05:41:32.982Z,9.13
2022-08-22T05:43:43.910Z,9.95
2022-08-22T05:45:51.752Z,8.53
2022-08-22T05:48:06.210Z,8.60
2022-08-22T05:50:17.582Z,8.50
2022-08-22T05:52:35.976Z,8.23
2022-08-22T05:54:54.070Z,8.18
2022-08-22T05:57:09.901Z,8.95
2022-08-22T05:59:27.475Z,8.40
2022-08-22T06:01:38.367Z,8.00
2022-08-22T06:03:54.430Z,8.03
2022-08-22T06:06:05.710Z,7.90
2022-08-22T06:08:24.775Z,8.18
2022-08-22T06:10:39.837Z,7.88
2022-08-22T06:12:54.236Z,8.15
2022-08-22T06:15:12.165Z,8.00
2022-08-22T06:17:23.401Z,7.40
2022-08-22T06:19:30.793Z,7.60
2022-08-22T06:21:40.522Z,7.75
2022-08-22T06:23:51.854Z,7.15
2022-08-22T06:26:03.592Z,6.53
2022-08-22T06:28:15.331Z,7.55
2022-08-22T06:30:23.742Z,8.07
2022-08-22T06:32:58.491Z,7.47
2022-08-22T06:35:05.036Z,7.85
2022-08-22T06:37:19.703Z,7.10
2022-08-22T06:39:29.592Z,7.03
2022-08-22T06:41:42.710Z,7.18
2022-08-22T06:43:55.164Z,7.60
2022-08-22T06:46:03.009Z,6.80
2022-08-22T06:48:20.023Z,6.80
2022-08-22T06:50:32.796Z,6.68
2022-08-22T06:52:52.164Z,7.22
2022-08-22T06:55:04.306Z,6.57
2022-08-22T06:57:30.222Z,6.93
2022-08-22T06:59:41.147Z,7.30
2022-08-22T07:01:53.337Z,6.88
2022-08-22T07:04:06.666Z,7.03
2022-08-22T07:06:18.819Z,7.50
2022-08-22T07:08:27.432Z,6.40
2022-08-22T07:10:34.821Z,6.57
2022-08-22T07:12:49.064Z,6.32
2022-08-22T07:15:00.956Z,7.05
2022-08-22T07:19:28.385Z,7.00
2022-08-22T07:21:45.900Z,6.95
2022-08-22T07:23:53.334Z,7.28
2022-08-22T07:26:16.291Z,7.10
2022-08-22T07:28:37.019Z,6.95
2022-08-22T07:31:01.167Z,6.70
2022-08-22T07:33:27.070Z,6.70
2022-08-22T07:35:39.298Z,6.90
2022-08-22T07:38:01.718Z,6.65
2022-08-22T07:40:19.384Z,7.30
2022-08-22T07:42:33.136Z,6.72
2022-08-22T07:45:00.095Z,6.45
2022-08-22T07:47:12.336Z,6.30
2022-08-22T07:49:24.230Z,6.30
2022-08-22T07:51:37.453Z,6.55
2022-08-22T07:53:47.508Z,6.55
2022-08-22T07:55:56.526Z,6.78
2022-08-22T07:58:05.609Z,6.78
2022-08-22T08:00:20.922Z,5.90
2022-08-22T08:02:29.177Z,6.47
2022-08-22T08:04:40.380Z,6.75
2022-08-22T08:06:51.583Z,6.28
2022-08-22T08:08:59.890Z,6.82
2022-08-22T08:11:08.300Z,6.50
2022-08-22T08:13:23.671Z,6.05
2022-08-22T08:15:33.830Z,6.57
2022-08-22T08:17:43.050Z,6.20
2022-08-22T08:19:51.887Z,5.88
2022-08-22T08:22:02.639Z,5.28
2022-08-22T08:24:12.078Z,6.18
2022-08-22T08:26:23.503Z,6.90
2022-08-22T08:28:35.658Z,6.30
2022-08-22T08:30:48.108Z,6.38
2022-08-22T08:33:25.737Z,6.32
2022-08-22T08:35:29.107Z,6.15
2022-08-22T08:37:42.216Z,6.10
2022-08-22T08:39:53.558Z,5.97
2022-08-22T08:43:10.961Z,5.55
2022-08-22T08:45:37.047Z,5.72
2022-08-22T08:48:15.672Z,6.35
2022-08-22T08:50:35.652Z,5.43
2022-08-22T08:53:05.055Z,6.07
2022-08-22T08:55:24.573Z,5.78
2022-08-22T08:57:50.596Z,6.35
2022-08-22T09:00:10.175Z,5.90
2022-08-22T09:02:36.765Z,5.93
2022-08-22T09:05:24.487Z,7.03
2022-08-22T09:07:57.591Z,6.22
2022-08-22T09:10:27.395Z,6.45
2022-08-22T09:13:11.551Z,5.78
2022-08-22T09:15:42.729Z,6.07
2022-08-22T09:18:30.727Z,5.47
2022-08-22T09:21:10.971Z,5.68
2022-08-22T09:24:12.324Z,6.03
2022-08-22T09:26:24.014Z,5.63
2022-08-22T09:28:38.515Z,6.05
2022-08-22T09:31:16.580Z,6.03
2022-08-22T09:33:41.113Z,6.38
2022-08-22T09:35:57.817Z,6.53
2022-08-22T09:41:26.736Z,7.15
2022-08-22T09:43:44.166Z,6.82
2022-08-22T09:46:02.271Z,6.82
2022-08-22T09:48:18.940Z,7.20
2022-08-22T09:50:34.570Z,8.30
2022-08-22T09:52:57.429Z,6.95
2022-08-22T09:55:14.800Z,6.03
2022-08-22T09:57:39.183Z,6.03
2022-08-22T10:00:02.889Z,4.97
2022-08-22T10:02:25.790Z,5.22
2022-08-22T10:04:48.690Z,4.70
2022-08-22T10:07:11.768Z,5.03
2022-08-22T10:09:32.134Z,4.20
2022-08-22T10:11:45.213Z,4.75
2022-08-22T10:14:01.863Z,4.80
2022-08-22T10:16:23.274Z,4.65
2022-08-22T10:18:43.951Z,4.53
2022-08-22T10:21:11.391Z,4.30
2022-08-22T10:23:24.410Z,4.85
2022-08-22T10:25:41.801Z,5.05
2022-08-22T10:27:59.808Z,5.22
2022-08-22T10:30:13.453Z,5.07
2022-08-22T10:32:34.558Z,5.43
2022-08-22T10:34:49.675Z,5.18
2022-08-22T10:37:05.453Z,5.03
2022-08-22T10:39:19.795Z,5.20
2022-08-22T10:41:33.787Z,5.25
2022-08-22T10:43:49.472Z,4.73
2022-08-22T10:46:14.774Z,5.43
2022-08-22T10:48:42.178Z,5.15
2022-08-22T10:50:52.233Z,5.35
2022-08-22T10:53:18.149Z,6.35
2022-08-22T10:55:37.571Z,5.53
2022-08-22T10:57:59.391Z,5.22
2022-08-22T11:00:16.924Z,6.97
2022-08-22T11:03:01.954Z,11.02
2022-08-22T11:05:30.468Z,12.02
2022-08-22T11:07:50.190Z,8.50
2022-08-22T11:10:05.479Z,8.10
2022-08-22T11:12:20.432Z,7.95
2022-08-22T11:15:08.584Z,7.45
2022-08-22T11:17:35.575Z,8.10
2022-08-22T11:20:09.092Z,10.45
2022-08-22T11:22:31.789Z,12.20
2022-08-22T11:25:35.673Z,14.15
2022-08-22T11:27:57.409Z,16.15
2022-08-22T11:30:09.952Z,15.00
2022-08-22T11:32:25.171Z,16.52
2022-08-22T11:34:46.499Z,14.00
2022-08-22T11:36:58.391Z,13.55
2022-08-22T11:39:18.084Z,13.57
2022-08-22T11:41:30.302Z,15.75
2022-08-22T11:43:51.006Z,15.68
2022-08-22T11:46:03.879Z,14.40
2022-08-22T11:48:17.922Z,10.77
2022-08-22T11:50:36.363Z,9.70
2022-08-22T11:53:27.006Z,9.70
2022-08-22T11:55:39.013Z,7.75
2022-08-22T11:57:47.994Z,7.43
2022-08-22T12:00:12.479Z,8.63
2022-08-22T12:02:28.979Z,7.90
2022-08-22T12:04:44.116Z,7.80
2022-08-22T12:06:58.222Z,6.53
2022-08-22T12:09:27.061Z,6.90
2022-08-22T12:11:46.329Z,6.28
2022-08-22T12:14:06.021Z,6.25
2022-08-22T12:16:19.023Z,6.15
2022-08-22T12:18:45.360Z,6.15
2022-08-22T12:21:17.368Z,5.63
2022-08-22T12:23:49.110Z,6.57
2022-08-22T12:26:12.533Z,5.60
2022-08-22T12:28:31.402Z,5.28
2022-08-22T12:30:45.854Z,5.88
2022-08-22T12:33:20.779Z,6.07
2022-08-22T12:35:43.162Z,5.78
2022-08-22T12:37:57.412Z,5.93
2022-08-22T12:40:31.670Z,5.75
2022-08-22T12:43:08.351Z,5.57
2022-08-22T12:45:52.864Z,5.63
2022-08-22T12:48:13.159Z,5.75
2022-08-22T12:50:31.615Z,6.10
2022-08-22T12:52:55.317Z,5.78
2022-08-22T12:55:31.725Z,6.13
2022-08-22T12:57:50.360Z,6.10
2022-08-22T13:00:26.897Z,5.80
2022-08-22T13:02:40.749Z,6.10
2022-08-22T13:04:52.988Z,5.95
2022-08-22T13:07:11.801Z,6.13
2022-08-22T13:09:22.782Z,6.22
2022-08-22T13:11:41.511Z,5.97
2022-08-22T13:13:57.152Z,5.90
2022-08-22T13:16:08.582Z,6.00
2022-08-22T13:18:29.729Z,5.80
2022-08-22T13:22:46.963Z,5.95
2022-08-22T13:24:59.835Z,6.40
2022-08-22T13:27:12.345Z,5.95
2022-08-22T13:29:27.193Z,7.25
2022-08-22T13:31:38.168Z,6.97
2022-08-22T13:33:49.189Z,6.97
2022-08-22T13:35:59.291Z,6.70
2022-08-22T13:38:12.505Z,7.05
2022-08-22T13:40:29.017Z,7.18
2022-08-22T13:42:40.442Z,6.72
2022-08-22T13:44:52.238Z,7.50
2022-08-22T13:47:14.244Z,6.60
2022-08-22T13:49:33.684Z,6.97
2022-08-22T13:51:49.929Z,6.70
2022-08-22T13:54:10.796Z,7.47
2022-08-22T13:56:23.751Z,6.78
2022-08-22T13:58:45.876Z,7.00
2022-08-22T14:01:32.247Z,6.95
2022-08-22T14:03:53.385Z,7.03
2022-08-22T14:06:32.435Z,6.90
2022-08-22T14:08:36.270Z,7.65
2022-08-22T14:10:48.057Z,7.53
2022-08-22T14:13:37.835Z,7.13
2022-08-22T14:15:46.162Z,7.80
2022-08-22T14:17:57.948Z,7.03
2022-08-22T14:20:13.010Z,6.82
2022-08-22T14:22:31.784Z,7.70
2022-08-22T14:27:00.101Z,7.75
2022-08-22T14:29:18.953Z,7.60
2022-08-22T14:31:28.084Z,8.35
2022-08-22T14:33:39.798Z,7.90
2022-08-22T14:35:53.657Z,8.23
2022-08-22T14:38:20.239Z,7.50
2022-08-22T14:40:31.786Z,7.22
2022-08-22T14:42:47.965Z,7.75
2022-08-22T14:45:08.421Z,7.88
2022-08-22T14:47:54.578Z,8.05
2022-08-22T14:49:58.673Z,7.55
2022-08-22T14:52:19.893Z,7.93
2022-08-22T14:56:38.897Z,8.43
2022-08-22T14:58:54.021Z,7.80
2022-08-22T15:01:10.360Z,8.15
2022-08-22T15:03:28.304Z,7.57
2022-08-22T15:05:45.823Z,8.45
2022-08-22T15:08:02.236Z,8.40
2022-08-22T15:10:23.834Z,8.30
2022-08-22T15:12:33.680Z,7.60
2022-08-22T15:14:52.018Z,8.13
2022-08-22T15:17:02.686Z,7.65
2022-08-22T15:19:28.818Z,7.95
2022-08-22T15:21:41.263Z,8.07
2022-08-22T15:23:51.528Z,7.55
2022-08-22T15:26:04.846Z,8.07
2022-08-22T15:28:20.459Z,8.25
2022-08-22T15:30:39.296Z,7.75
2022-08-22T15:32:51.889Z,8.88
2022-08-22T15:35:08.503Z,8.23
2022-08-22T15:37:36.153Z,7.28
2022-08-22T15:40:08.066Z,8.02
2022-08-22T15:42:27.908Z,7.90
2022-08-22T15:44:38.569Z,8.18
2022-08-22T15:46:57.824Z,7.85
2022-08-22T15:49:10.613Z,8.00
2022-08-22T15:51:46.334Z,8.38
2022-08-22T15:54:16.167Z,8.13
2022-08-22T15:56:36.289Z,7.85
2022-08-22T15:58:48.554Z,7.97
2022-08-22T16:01:18.860Z,8.45
2022-08-22T16:03:31.314Z,8.37
2022-08-22T16:05:55.351Z,7.63
2022-08-22T16:08:08.417Z,7.82
2022-08-22T16:10:32.554Z,8.00
2022-08-22T16:12:44.077Z,7.90
2022-08-22T16:14:53.302Z,7.75
2022-08-22T16:17:05.046Z,8.07
2022-08-22T16:19:24.925Z,8.23
2022-08-22T16:22:07.223Z,7.68
2022-08-22T16:26:45.299Z,7.95
2022-08-22T16:29:00.307Z,8.20
2022-08-22T16:31:22.492Z,7.38
2022-08-22T16:33:34.494Z,7.55
2022-08-22T16:36:26.979Z,8.02
2022-08-22T16:38:45.219Z,7.22
2022-08-22T16:40:52.616Z,7.10
2022-08-22T16:43:16.439Z,7.38
2022-08-22T16:45:36.975Z,7.53
2022-08-22T16:47:57.964Z,7.10
2022-08-22T16:50:12.327Z,7.43
2022-08-22T16:52:58.779Z,7.55
2022-08-22T16:55:07.143Z,7.40
2022-08-22T16:57:23.538Z,7.32
2022-08-22T16:59:47.518Z,7.70
2022-08-22T17:02:09.694Z,8.30
2022-08-22T17:04:27.834Z,7.68
2022-08-22T17:06:49.207Z,7.50
2022-08-22T17:09:06.670Z,7.75
2022-08-22T17:11:26.666Z,7.50
2022-08-22T17:14:03.480Z,8.15
2022-08-22T17:16:28.170Z,7.25
2022-08-22T17:18:50.977Z,8.77
2022-08-22T17:21:07.162Z,8.02
2022-08-22T17:23:22.655Z,8.25
2022-08-22T17:25:37.704Z,7.85
2022-08-22T17:27:47.811Z,8.48
2022-08-22T17:30:05.942Z,8.20
2022-08-22T17:32:20.968Z,7.68
2022-08-22T17:34:41.003Z,8.25
2022-08-22T17:37:01.446Z,7.97
2022-08-22T17:39:19.880Z,7.97
2022-08-22T17:41:37.260Z,7.72
2022-08-22T17:43:59.748Z,7.28
2022-08-22T17:46:26.639Z,7.45
2022-08-22T17:48:38.788Z,7.57
2022-08-22T17:50:53.604Z,8.65
2022-08-22T17:53:06.970Z,8.02
2022-08-22T17:55:20.243Z,8.10
2022-08-22T17:57:32.816Z,7.57
2022-08-22T17:59:49.305Z,7.90
2022-08-22T18:02:02.882Z,7.68
2022-08-22T18:04:25.170Z,7.95
2022-08-22T18:06:38.393Z,7.05
2022-08-22T18:13:42.695Z,7.47
2022-08-22T18:15:55.301Z,8.47
2022-08-22T18:18:06.271Z,8.00
2022-08-22T18:20:18.421Z,8.27
2022-08-22T18:22:32.770Z,7.70
2022-08-22T18:24:46.872Z,9.00
2022-08-22T18:27:01.375Z,8.30
2022-08-22T18:29:14.803Z,8.02
2022-08-22T18:31:38.589Z,8.07
2022-08-22T18:33:53.375Z,8.05
2022-08-22T18:36:11.214Z,7.97
2022-08-22T18:38:28.371Z,8.00
2022-08-22T18:40:49.817Z,7.80
2022-08-22T18:43:01.171Z,8.38
2022-08-22T18:45:09.268Z,6.72
2022-08-22T18:47:20.097Z,6.70
2022-08-22T18:49:55.223Z,6.65
2022-08-22T18:52:36.298Z,5.78
2022-08-22T18:55:09.399Z,5.18
2022-08-22T18:57:42.636Z,4.57
2022-08-22T19:00:05.687Z,3.78
2022-08-22T19:02:40.718Z,3.75
2022-08-22T19:05:15.255Z,3.75
2022-08-22T19:07:45.001Z,3.28
2022-08-22T19:10:18.245Z,3.33
2022-08-22T19:12:39.562Z,3.50
2022-08-22T19:15:19.520Z,3.45
2022-08-22T19:17:46.509Z,3.67
2022-08-22T19:20:39.611Z,3.72
2022-08-22T19:22:51.090Z,2.88
2022-08-22T19:25:29.663Z,3.50
2022-08-22T19:27:40.736Z,2.97
2022-08-22T19:30:03.128Z,2.80
2022-08-22T19:32:13.364Z,2.83
2022-08-22T19:34:39.715Z,2.88
2022-08-22T19:36:48.065Z,2.70
2022-08-22T19:39:03.701Z,2.70
2022-08-22T19:41:12.981Z,2.60
2022-08-22T19:43:29.706Z,2.88
2022-08-22T19:45:44.094Z,2.50
2022-08-22T19:48:02.535Z,2.70
2022-08-22T19:50:15.967Z,2.50
2022-08-22T19:52:35.889Z,2.15
2022-08-22T19:54:51.674Z,2.13
2022-08-22T19:57:10.159Z,2.38
2022-08-22T19:59:26.782Z,2.25
2022-08-22T20:01:44.290Z,2.10
2022-08-22T20:03:56.045Z,2.30
2022-08-22T20:06:22.116Z,2.00
2022-08-22T20:08:53.816Z,1.95
2022-08-22T20:11:11.914Z,1.85
2022-08-22T20:13:26.879Z,1.90
2022-08-22T20:15:37.132Z,1.77
2022-08-22T20:18:11.655Z,2.03
2022-08-22T20:20:35.735Z,2.22
2022-08-22T20:22:48.547Z,2.40
2022-08-22T20:24:58.999Z,2.10
2022-08-22T20:27:16.307Z,2.10
2022-08-22T20:29:28.615Z,2.05
2022-08-22T20:31:38.719Z,2.38
2022-08-22T20:33:47.440Z,2.60
2022-08-22T20:35:57.070Z,2.58
2022-08-22T20:38:07.813Z,2.88
2022-08-22T20:40:55.879Z,2.55
2022-08-22T20:43:10.669Z,2.80
2022-08-22T20:45:21.913Z,2.58
2022-08-22T20:47:40.893Z,2.90
2022-08-22T20:49:51.537Z,2.47
2022-08-22T20:52:01.275Z,2.78
2022-08-22T20:54:19.515Z,2.90
2022-08-22T20:56:52.814Z,2.47
2022-08-22T20:59:01.435Z,3.00
2022-08-22T21:01:13.363Z,3.22
2022-08-22T21:03:35.908Z,3.35
2022-08-22T21:05:44.889Z,3.47
2022-08-22T21:08:05.436Z,2.97
2022-08-22T21:10:38.011Z,3.30
2022-08-22T21:12:45.038Z,2.75
2022-08-22T21:14:52.314Z,2.67
2022-08-22T21:17:01.135Z,2.47
2022-08-22T21:19:19.483Z,3.17
2022-08-22T21:21:28.812Z,3.72
2022-08-22T21:23:36.262Z,3.20
2022-08-22T21:26:02.169Z,3.63
2022-08-22T21:28:09.461Z,3.35
2022-08-22T21:30:25.900Z,3.13
2022-08-22T21:32:38.314Z,3.55
2022-08-22T21:34:47.745Z,3.60
2022-08-22T21:36:59.025Z,3.72
2022-08-22T21:39:15.827Z,3.67
2022-08-22T21:41:34.834Z,3.85
2022-08-22T21:43:48.151Z,3.90
2022-08-22T21:45:59.387Z,3.22
2022-08-22T21:48:31.450Z,3.38
2022-08-22T21:53:02.611Z,3.63
2022-08-22T21:55:26.589Z,3.28
2022-08-22T21:57:40.024Z,3.70
2022-08-22T21:59:52.254Z,3.58
2022-08-22T22:02:36.545Z,4.10
2022-08-22T22:04:45.901Z,4.45
2022-08-22T22:06:52.951Z,4.85
2022-08-22T22:09:00.158Z,4.70
2022-08-22T22:11:10.624Z,5.15
2022-08-22T22:13:18.577Z,5.80
2022-08-22T22:15:29.279Z,6.07
2022-08-22T22:17:36.204Z,6.70
2022-08-22T22:19:45.138Z,7.57
2022-08-22T22:21:52.668Z,7.85
2022-08-22T22:23:59.746Z,10.05
2022-08-22T22:26:08.463Z,9.68
2022-08-22T22:28:18.109Z,9.45
2022-08-22T22:30:25.646Z,9.98
2022-08-22T22:32:32.735Z,11.25
2022-08-22T22:34:40.279Z,10.52
2022-08-22T22:36:49.340Z,12.30
2022-08-22T22:38:57.134Z,12.60
2022-08-22T22:41:04.214Z,11.27
2022-08-22T22:43:12.272Z,10.40
2022-08-22T22:45:19.764Z,10.32
2022-08-22T22:47:30.989Z,10.05
2022-08-22T22:49:38.124Z,8.17
2022-08-22T22:51:45.808Z,6.80
2022-08-22T22:53:55.610Z,6.97
2022-08-22T22:56:02.577Z,6.47
2022-08-22T22:58:10.377Z,6.82
2022-08-22T23:00:19.247Z,6.85
2022-08-22T23:02:27.344Z,5.70
2022-08-22T23:04:36.020Z,7.13
2022-08-22T23:06:43.090Z,7.50
2022-08-22T23:08:51.052Z,7.50
2022-08-22T23:10:59.713Z,8.18
2022-08-22T23:13:07.663Z,7.65
2022-08-22T23:15:15.198Z,7.57
2022-08-22T23:17:23.254Z,7.78
2022-08-22T23:19:30.636Z,7.60
2022-08-22T23:21:37.713Z,7.68
2022-08-22T23:23:44.894Z,7.63
2022-08-22T23:25:52.039Z,8.13
2022-08-22T23:28:00.951Z,10.57
2022-08-22T23:30:09.731Z,8.65
2022-08-22T23:32:18.127Z,9.10
2022-08-22T23:34:27.007Z,8.57
2022-08-22T23:36:34.488Z,8.73
2022-08-22T23:38:41.677Z,8.55
2022-08-22T23:40:49.068Z,8.52
2022-08-22T23:42:56.248Z,7.80
2022-08-22T23:45:06.859Z,8.02
2022-08-22T23:47:14.908Z,8.68
2022-08-22T23:49:22.440Z,10.00
2022-08-22T23:51:30.339Z,7.75
2022-08-22T23:53:38.239Z,7.35
2022-08-22T23:55:45.419Z,7.47
2022-08-22T23:57:52.449Z,6.63
